CST,Max TemperatureF,Mean TemperatureF,Min TemperatureF,Max Dew PointF,MeanDew PointF,Min DewpointF,Max Humidity, Mean Humidity, Min Humidity, Max Sea Level PressureIn, Mean Sea Level PressureIn, Min Sea Level PressureIn, Max VisibilityMiles, Mean VisibilityMiles, Min VisibilityMiles, Max Wind SpeedMPH, Mean Wind SpeedMPH, Max Gust SpeedMPH,PrecipitationIn, CloudCover, Events, WindDirDegrees
2012-11-1,48,39,30,37,32,25,87,69,50,30.02,29.97,29.93,10,9,2,21,10,26,0.00,3,,330
2012-11-2,42,35,28,30,27,25,86,69,53,30.12,30.06,30.03,10,10,9,14,7,16,0.00,2,,74
2012-11-3,48,40,32,34,30,28,87,65,46,30.20,30.17,30.12,10,10,5,8,4,,0.00,7,,41
2012-11-4,46,42,39,41,37,32,100,82,62,30.19,30.13,30.07,10,8,4,10,8,,0.08,8,Rain,119
2012-11-5,42,40,39,41,39,37,100,91,81,30.17,30.10,29.97,7,4,1,17,9,14,0.08,8,Rain,153
2012-11-6,46,42,39,39,37,36,100,82,71,29.98,29.90,29.84,10,8,2,26,17,33,0.05,8,Rain,294
2012-11-7,44,40,35,37,34,32,93,81,61,30.13,30.07,29.99,10,10,6,16,8,20,0.00,5,Rain,35
2012-11-8,59,46,33,39,36,32,93,72,48,30.05,29.95,29.89,10,10,9,24,14,33,0.00,0,,157
2012-11-9,57,44,32,45,39,32,100,80,58,29.94,29.88,29.77,10,9,4,20,8,26,0.00,2,,89
2012-11-10,77,64,50,57,53,45,94,73,41,29.76,29.59,29.48,10,9,4,29,19,36,0.10,4,Rain,169
2012-11-11,55,37,19,52,27,14,100,84,68,30.03,29.83,29.55,10,8,1,21,15,29,0.03,5,Rain-Snow,298
2012-11-12,30,24,19,18,16,14,86,73,60,30.32,30.15,30.02,10,10,10,25,15,32,0.00,4,Snow,275
2012-11-13,46,32,17,30,22,14,86,65,37,30.35,30.30,30.24,10,10,10,17,10,20,0.00,2,,182
2012-11-14,53,42,32,32,32,30,93,70,41,30.28,30.22,30.17,10,10,6,17,11,23,0.00,3,,198
2012-11-15,53,40,26,36,31,23,87,71,44,30.43,30.27,30.14,10,10,6,16,11,21,0.00,1,,304
2012-11-16,48,34,19,32,23,16,93,68,37,30.46,30.39,30.31,10,10,9,16,7,,0.00,0,,127
2012-11-17,59,47,35,37,33,30,87,61,36,30.31,30.24,30.18,10,10,7,28,16,37,0.00,2,,170
2012-11-18,60,51,42,34,32,30,66,48,34,30.19,30.12,30.07,10,10,9,25,18,31,0.00,3,,169
2012-11-19,59,50,39,43,38,34,87,63,47,30.09,30.03,29.98,10,10,8,20,14,28,0.00,2,,189
2012-11-20,57,42,28,39,32,27,100,66,33,30.19,30.13,30.08,10,8,2,16,7,,0.00,0,,241
2012-11-21,69,54,39,43,39,32,87,60,35,30.07,29.93,29.77,10,10,7,24,17,34,0.00,0,,191
2012-11-22,59,44,30,45,35,21,87,68,48,30.10,29.83,29.67,10,10,10,31,18,41,0.00,2,Snow,267
2012-11-23,32,23,14,21,12,9,79,64,51,30.38,30.30,30.10,10,10,7,31,22,43,0.00,3,Snow,323
2012-11-24,32,21,10,19,13,7,86,69,48,30.34,30.07,29.80,10,10,10,18,7,24,0.00,4,Snow,179
2012-11-25,35,29,23,25,21,18,86,71,56,30.16,29.97,29.81,10,10,10,16,9,21,0.00,4,,333
2012-11-26,28,19,10,19,8,1,80,61,46,30.40,30.33,30.16,10,10,10,18,9,24,0.00,3,Snow,338
2012-11-27,37,24,10,23,15,3,86,71,52,30.37,30.23,30.10,10,10,9,21,11,30,0.00,1,Snow,223
2012-11-28,42,28,14,25,19,10,100,75,45,30.36,30.23,30.07,10,8,0,18,7,22,0.00,1,Fog-Snow,198
2012-11-29,48,36,24,30,27,21,93,73,50,30.07,29.99,29.95,10,9,5,13,8,,0.00,0,,142
2012-11-30,44,34,23,36,30,21,100,85,66,30.10,30.03,29.95,9,5,2,15,8,22,0.00,2,,81